Gerd Maersk — OYGM2 — position and weather

sailwx.info

Track history (hours):
 
Tides and Currents Weather Stations Pressure Air Temp Water Temp Dewpoint Dewpoint Depression Visibility Wind Speed Wind Dir Waves Ship Positions

Gerd Maersk

Last reported at 2014-Oct-12 22:16 UTC. Time now 2014-Oct-30 15:57 UTC.
Position N 36°06' E 015°32'.
Warning: this ship's position is 17 days out of date.

Length 367 m; draft 13.1 m.

Type: Ship (hazmat cat A). MMSI: 220415000.

Date/timePositionNaut miles runAvg speedWind from/ knotsBaromVisibWave heightAir tempDewpointWater temp
2014-Oct-12 22:16N 36°06' E 015°32'1520.9
2014-Oct-12 21:34N 36°10' E 015°14'2120.8
2014-Oct-12 20:34N 36°16' E 014°49'4521.0
2014-Oct-12 18:26N 36°31' E 013°57'1820.7
2014-Oct-12 17:33N 36°36' E 013°35'2020.6
2014-Oct-12 16:34N 36°42' E 013°11'2020.3
2014-Oct-12 15:33N 36°47' E 012°47'2120.7
2014-Oct-12 14:33N 36°54' E 012°22'2221.0
2014-Oct-12 13:31N 37°03' E 011°57'6120.6
2014-Oct-12 10:34N 37°27' E 010°47'2120.6
2014-Oct-12 09:34N 37°31' E 010°21'2120.9
2014-Oct-12 08:34N 37°32' E 009°55'2221.7
2014-Oct-12 07:33N 37°28' E 009°28'2221.8
2014-Oct-12 06:33N 37°25' E 009°01'2221.4
2014-Oct-12 05:33N 37°20' E 008°34'2120.8
2014-Oct-12 04:33N 37°20' E 008°08'2121.3
2014-Oct-12 03:33N 37°20' E 007°41'6721.1
2014-Oct-12 00:23N 37°20' E 006°17'8419.8
2014-Oct-11 20:08N 37°20' E 004°31'2020.7
2014-Oct-11 19:11N 37°20' E 004°07'3420.7
2014-Oct-11 17:33N 37°20' E 003°24'2720.8
2014-Oct-11 16:15N 37°18' E 002°50'1521.0
2014-Oct-11 15:33N 37°15' E 002°32'2220.8
2014-Oct-11 14:30N 37°10' E 002°06'6321.4
2014-Oct-11 11:33N 36°55' E 000°48'2721.0
2014-Oct-11 10:14N 36°49' E 000°15'1420.9
2014-Oct-11 09:33N 36°45' W 000°02'2320.6
2014-Oct-11 08:25N 36°40' W 000°31'2120.9
2014-Oct-11 07:25N 36°34' W 000°56'21121.5
2014-Oct-10 21:33N 35°59' W 005°15'18121.5
2014-Oct-10 13:08N 36°30' W 008°56'7519.3
2014-Oct-10 09:13N 37°35' W 009°46'1821.0
2014-Oct-10 08:20N 37°53' W 009°50'1620.9
2014-Oct-10 07:33N 38°08' W 009°56'81818.9
2014-Oct-08 12:10N 50°19' W 001°21'1522.1
2014-Oct-08 11:30N 50°23' W 000°59'1920.1
2014-Oct-08 10:32N 50°28' W 000°29'5417.7
2014-Oct-08 07:29N 50°45' E 000°52'2020.8
2014-Oct-08 06:32N 50°58' E 001°15'2222.8
2014-Oct-08 05:34N 51°12' E 001°43'2120.6
2014-Oct-08 04:33N 51°30' E 001°59'2019.5
2014-Oct-08 03:34N 51°44' E 002°21'5517.5
2014-Oct-08 00:26N 52°04' E 003°44'8 8.7
2014-Oct-07 23:34N 52°02' E 003°56'6 6.1
2014-Oct-07 22:33N 51°58' E 004°03'1 0.5
2014-Oct-07 21:31N 51°57' E 004°02'0 0.0
2014-Oct-07 20:31N 51°57' E 004°02'0 0.0
2014-Oct-07 19:31N 51°57' E 004°02'0 0.0
2014-Oct-07 18:31N 51°57' E 004°02'0 0.0
2014-Oct-07 17:28N 51°57' E 004°02'0 0.0
2014-Oct-07 16:31N 51°57' E 004°02'0 0.0
2014-Oct-07 15:31N 51°57' E 004°02'0 0.0
2014-Oct-07 14:31N 51°57' E 004°02'0 0.0
2014-Oct-07 13:31N 51°57' E 004°02'0 0.0
2014-Oct-07 12:31N 51°57' E 004°02'0 0.0
2014-Oct-07 11:25N 51°57' E 004°02'0 0.0
2014-Oct-07 10:31N 51°57' E 004°02'0 0.0
2014-Oct-07 09:31N 51°57' E 004°02'0 0.0
2014-Oct-07 08:31N 51°57' E 004°02'0 0.0
2014-Oct-07 07:31N 51°57' E 004°02'0 0.0
2014-Oct-07 06:31N 51°57' E 004°02'0 0.0
2014-Oct-07 05:31N 51°57' E 004°02'0 0.0
2014-Oct-07 04:31N 51°57' E 004°02'0 0.0
2014-Oct-07 03:31N 51°57' E 004°02'0 0.0
2014-Oct-07 02:31N 51°57' E 004°02'0 0.0
2014-Oct-07 01:31N 51°57' E 004°02'0 0.0
2014-Oct-07 00:28N 51°57' E 004°02'0 0.0
2014-Oct-06 23:31N 51°57' E 004°02'0 0.0
2014-Oct-06 22:31N 51°57' E 004°02'0 0.0
2014-Oct-06 21:31N 51°57' E 004°02'0 0.0
2014-Oct-06 20:31N 51°57' E 004°02'0 0.0
2014-Oct-06 19:31N 51°57' E 004°02'0 0.0
2014-Oct-06 18:31N 51°57' E 004°02'0 0.0
2014-Oct-06 17:31N 51°57' E 004°02'0 0.0
2014-Oct-06 16:31N 51°57' E 004°02'0 0.0
2014-Oct-06 15:31N 51°57' E 004°02'0 0.0
2014-Oct-06 14:31N 51°57' E 004°02'0 0.0
2014-Oct-06 13:31N 51°57' E 004°02'0 0.0
2014-Oct-06 12:31N 51°57' E 004°02'0 0.0
2014-Oct-06 11:31N 51°57' E 004°02'0 0.0
2014-Oct-06 10:31N 51°57' E 004°02'0 0.0
2014-Oct-06 09:31N 51°57' E 004°02'1 1.3
2014-Oct-06 08:33N 51°58' E 004°04'5 5.3
2014-Oct-06 07:33N 51°60' E 003°57'8 7.7
2014-Oct-06 06:33N 52°03' E 003°45'1312.7
2014-Oct-06 05:33N 52°16' E 003°46'1615.9
2014-Oct-06 04:34N 52°31' E 003°52'1615.6
2014-Oct-06 03:33N 52°46' E 003°57'1414.5
2014-Oct-06 02:33N 52°60' E 004°05'1514.9
2014-Oct-06 01:33N 53°10' E 004°23'1815.0
2014-Oct-06 00:22N 53°27' E 004°34'1416.3
2014-Oct-05 23:30N 53°40' E 004°40'1816.4
2014-Oct-05 22:25N 53°57' E 004°50'1416.0
2014-Oct-05 21:32N 54°11' E 004°55'27513.6
2014-Oct-05 01:19N 57°49' E 009°55'911.7
2014-Oct-05 00:33N 57°51' E 010°11'1212.0
2014-Oct-04 23:33N 57°51' E 010°33'1212.5
2014-Oct-04 22:33N 57°47' E 010°56'1313.0
2014-Oct-04 21:33N 57°41' E 011°18'1312.5
2014-Oct-04 20:33N 57°36' E 011°39'8 8.3
2014-Oct-04 19:33N 57°41' E 011°52'0 0.1
2014-Oct-04 18:33N 57°41' E 011°52'0 0.0
2014-Oct-04 17:33N 57°41' E 011°52'0 0.0
2014-Oct-04 16:33N 57°41' E 011°52'0 0.0
2014-Oct-04 15:33N 57°41' E 011°52'0 0.0
2014-Oct-04 14:33N 57°41' E 011°52'0 0.0
2014-Oct-04 13:33N 57°41' E 011°52'0 0.0
2014-Oct-04 12:33N 57°41' E 011°52'0 0.0
2014-Oct-04 11:33N 57°41' E 011°52'0 0.0
2014-Oct-04 10:33N 57°41' E 011°52'0 0.0
2014-Oct-04 09:33N 57°41' E 011°52'0 0.0
2014-Oct-04 08:33N 57°41' E 011°52'0 0.0
2014-Oct-04 07:33N 57°41' E 011°52'0 0.0
2014-Oct-04 06:33N 57°41' E 011°52'0 0.0
2014-Oct-04 05:33N 57°41' E 011°52'0 0.0
2014-Oct-04 04:33N 57°41' E 011°52'0 0.0
2014-Oct-04 03:33N 57°41' E 011°52'2 1.6
2014-Oct-04 02:34N 57°41' E 011°49'1010.0
2014-Oct-04 01:33N 57°37' E 011°32'1010.1
2014-Oct-04 00:33N 57°39' E 011°13'1211.8
2014-Oct-03 23:33N 57°47' E 010°58'1211.9
2014-Oct-03 22:33N 57°52' E 010°37'1313.3
2014-Oct-03 21:33N 57°51' E 010°12'1313.1
2014-Oct-03 20:32N 57°48' E 009°48'1313.3
2014-Oct-03 19:33N 57°41' E 009°27'1313.2
2014-Oct-03 18:33N 57°35' E 009°05'1413.1
2014-Oct-03 17:31N 57°28' E 008°43'2613.2
2014-Oct-03 15:32N 57°10' E 008°09'7712.9
2014-Oct-03 09:33N 55°59' E 007°12'12 9.8
2014-Oct-03 08:22N 55°48' E 007°05'1113.2
2014-Oct-03 07:33N 55°38' E 007°01'1413.4
2014-Oct-03 06:33N 55°24' E 007°01'1313.4
2014-Oct-03 05:33N 55°11' E 007°01'1313.4
2014-Oct-03 04:33N 54°57' E 007°02'1313.1
2014-Oct-03 03:33N 54°44' E 006°60'1212.4
2014-Oct-03 02:33N 54°33' E 007°10'1212.5
2014-Oct-03 01:33N 54°23' E 007°22'1212.4
2014-Oct-03 00:33N 54°11' E 007°30'1313.0
2014-Oct-02 23:33N 53°60' E 007°40'1414.1
2014-Oct-02 22:34N 53°51' E 007°59'  
Track history (hours):
 
Tides and Currents Weather Stations Pressure Air Temp Water Temp Dewpoint Dewpoint Depression Visibility Wind Speed Wind Dir Waves Ship Positions

Gerd Maersk

Last reported at 2014-Oct-12 22:16 UTC. Time now 2014-Oct-30 15:57 UTC.
Position N 36°06' E 015°32'.
Warning: this ship's position is 17 days out of date.

Length 367 m; draft 13.1 m.

Type: Ship (hazmat cat A). MMSI: 220415000.

Date/timePositionNaut miles runAvg speedWind from/ knotsBaromVisibWave heightAir tempDewpointWater temp
2014-Oct-12 22:16N 36°06' E 015°32'1520.9
2014-Oct-12 21:34N 36°10' E 015°14'2120.8
2014-Oct-12 20:34N 36°16' E 014°49'4521.0
2014-Oct-12 18:26N 36°31' E 013°57'1820.7
2014-Oct-12 17:33N 36°36' E 013°35'2020.6
2014-Oct-12 16:34N 36°42' E 013°11'2020.3
2014-Oct-12 15:33N 36°47' E 012°47'2120.7
2014-Oct-12 14:33N 36°54' E 012°22'2221.0
2014-Oct-12 13:31N 37°03' E 011°57'6120.6
2014-Oct-12 10:34N 37°27' E 010°47'2120.6
2014-Oct-12 09:34N 37°31' E 010°21'2120.9
2014-Oct-12 08:34N 37°32' E 009°55'2221.7
2014-Oct-12 07:33N 37°28' E 009°28'2221.8
2014-Oct-12 06:33N 37°25' E 009°01'2221.4
2014-Oct-12 05:33N 37°20' E 008°34'2120.8
2014-Oct-12 04:33N 37°20' E 008°08'2121.3
2014-Oct-12 03:33N 37°20' E 007°41'6721.1
2014-Oct-12 00:23N 37°20' E 006°17'8419.8
2014-Oct-11 20:08N 37°20' E 004°31'2020.7
2014-Oct-11 19:11N 37°20' E 004°07'3420.7
2014-Oct-11 17:33N 37°20' E 003°24'2720.8
2014-Oct-11 16:15N 37°18' E 002°50'1521.0
2014-Oct-11 15:33N 37°15' E 002°32'2220.8
2014-Oct-11 14:30N 37°10' E 002°06'6321.4
2014-Oct-11 11:33N 36°55' E 000°48'2721.0
2014-Oct-11 10:14N 36°49' E 000°15'1420.9
2014-Oct-11 09:33N 36°45' W 000°02'2320.6
2014-Oct-11 08:25N 36°40' W 000°31'2120.9
2014-Oct-11 07:25N 36°34' W 000°56'21121.5
2014-Oct-10 21:33N 35°59' W 005°15'18121.5
2014-Oct-10 13:08N 36°30' W 008°56'7519.3
2014-Oct-10 09:13N 37°35' W 009°46'1821.0
2014-Oct-10 08:20N 37°53' W 009°50'1620.9
2014-Oct-10 07:33N 38°08' W 009°56'81818.9
2014-Oct-08 12:10N 50°19' W 001°21'1522.1
2014-Oct-08 11:30N 50°23' W 000°59'1920.1
2014-Oct-08 10:32N 50°28' W 000°29'5417.7
2014-Oct-08 07:29N 50°45' E 000°52'2020.8
2014-Oct-08 06:32N 50°58' E 001°15'2222.8
2014-Oct-08 05:34N 51°12' E 001°43'2120.6
2014-Oct-08 04:33N 51°30' E 001°59'2019.5
2014-Oct-08 03:34N 51°44' E 002°21'5517.5
2014-Oct-08 00:26N 52°04' E 003°44'8 8.7
2014-Oct-07 23:34N 52°02' E 003°56'6 6.1
2014-Oct-07 22:33N 51°58' E 004°03'1 0.5
2014-Oct-07 21:31N 51°57' E 004°02'0 0.0
2014-Oct-07 20:31N 51°57' E 004°02'0 0.0
2014-Oct-07 19:31N 51°57' E 004°02'0 0.0
2014-Oct-07 18:31N 51°57' E 004°02'0 0.0
2014-Oct-07 17:28N 51°57' E 004°02'0 0.0
2014-Oct-07 16:31N 51°57' E 004°02'0 0.0
2014-Oct-07 15:31N 51°57' E 004°02'0 0.0
2014-Oct-07 14:31N 51°57' E 004°02'0 0.0
2014-Oct-07 13:31N 51°57' E 004°02'0 0.0
2014-Oct-07 12:31N 51°57' E 004°02'0 0.0
2014-Oct-07 11:25N 51°57' E 004°02'0 0.0
2014-Oct-07 10:31N 51°57' E 004°02'0 0.0
2014-Oct-07 09:31N 51°57' E 004°02'0 0.0
2014-Oct-07 08:31N 51°57' E 004°02'0 0.0
2014-Oct-07 07:31N 51°57' E 004°02'0 0.0
2014-Oct-07 06:31N 51°57' E 004°02'0 0.0
2014-Oct-07 05:31N 51°57' E 004°02'0 0.0
2014-Oct-07 04:31N 51°57' E 004°02'0 0.0
2014-Oct-07 03:31N 51°57' E 004°02'0 0.0
2014-Oct-07 02:31N 51°57' E 004°02'0 0.0
2014-Oct-07 01:31N 51°57' E 004°02'0 0.0
2014-Oct-07 00:28N 51°57' E 004°02'0 0.0
2014-Oct-06 23:31N 51°57' E 004°02'0 0.0
2014-Oct-06 22:31N 51°57' E 004°02'0 0.0
2014-Oct-06 21:31N 51°57' E 004°02'0 0.0
2014-Oct-06 20:31N 51°57' E 004°02'0 0.0
2014-Oct-06 19:31N 51°57' E 004°02'0 0.0
2014-Oct-06 18:31N 51°57' E 004°02'0 0.0
2014-Oct-06 17:31N 51°57' E 004°02'0 0.0
2014-Oct-06 16:31N 51°57' E 004°02'0 0.0
2014-Oct-06 15:31N 51°57' E 004°02'0 0.0
2014-Oct-06 14:31N 51°57' E 004°02'0 0.0
2014-Oct-06 13:31N 51°57' E 004°02'0 0.0
2014-Oct-06 12:31N 51°57' E 004°02'0 0.0
2014-Oct-06 11:31N 51°57' E 004°02'0 0.0
2014-Oct-06 10:31N 51°57' E 004°02'0 0.0
2014-Oct-06 09:31N 51°57' E 004°02'1 1.3
2014-Oct-06 08:33N 51°58' E 004°04'5 5.3
2014-Oct-06 07:33N 51°60' E 003°57'8 7.7
2014-Oct-06 06:33N 52°03' E 003°45'1312.7
2014-Oct-06 05:33N 52°16' E 003°46'1615.9
2014-Oct-06 04:34N 52°31' E 003°52'1615.6
2014-Oct-06 03:33N 52°46' E 003°57'1414.5
2014-Oct-06 02:33N 52°60' E 004°05'1514.9
2014-Oct-06 01:33N 53°10' E 004°23'1815.0
2014-Oct-06 00:22N 53°27' E 004°34'1416.3
2014-Oct-05 23:30N 53°40' E 004°40'1816.4
2014-Oct-05 22:25N 53°57' E 004°50'1416.0
2014-Oct-05 21:32N 54°11' E 004°55'27513.6
2014-Oct-05 01:19N 57°49' E 009°55'911.7
2014-Oct-05 00:33N 57°51' E 010°11'1212.0
2014-Oct-04 23:33N 57°51' E 010°33'1212.5
2014-Oct-04 22:33N 57°47' E 010°56'1313.0
2014-Oct-04 21:33N 57°41' E 011°18'1312.5
2014-Oct-04 20:33N 57°36' E 011°39'8 8.3
2014-Oct-04 19:33N 57°41' E 011°52'0 0.1
2014-Oct-04 18:33N 57°41' E 011°52'0 0.0
2014-Oct-04 17:33N 57°41' E 011°52'0 0.0
2014-Oct-04 16:33N 57°41' E 011°52'0 0.0
2014-Oct-04 15:33N 57°41' E 011°52'0 0.0
2014-Oct-04 14:33N 57°41' E 011°52'0 0.0
2014-Oct-04 13:33N 57°41' E 011°52'0 0.0
2014-Oct-04 12:33N 57°41' E 011°52'0 0.0
2014-Oct-04 11:33N 57°41' E 011°52'0 0.0
2014-Oct-04 10:33N 57°41' E 011°52'0 0.0
2014-Oct-04 09:33N 57°41' E 011°52'0 0.0
2014-Oct-04 08:33N 57°41' E 011°52'0 0.0
2014-Oct-04 07:33N 57°41' E 011°52'0 0.0
2014-Oct-04 06:33N 57°41' E 011°52'0 0.0
2014-Oct-04 05:33N 57°41' E 011°52'0 0.0
2014-Oct-04 04:33N 57°41' E 011°52'0 0.0
2014-Oct-04 03:33N 57°41' E 011°52'2 1.6
2014-Oct-04 02:34N 57°41' E 011°49'1010.0
2014-Oct-04 01:33N 57°37' E 011°32'1010.1
2014-Oct-04 00:33N 57°39' E 011°13'1211.8
2014-Oct-03 23:33N 57°47' E 010°58'1211.9
2014-Oct-03 22:33N 57°52' E 010°37'1313.3
2014-Oct-03 21:33N 57°51' E 010°12'1313.1
2014-Oct-03 20:32N 57°48' E 009°48'1313.3
2014-Oct-03 19:33N 57°41' E 009°27'1313.2
2014-Oct-03 18:33N 57°35' E 009°05'1413.1
2014-Oct-03 17:31N 57°28' E 008°43'2613.2
2014-Oct-03 15:32N 57°10' E 008°09'7712.9
2014-Oct-03 09:33N 55°59' E 007°12'12 9.8
2014-Oct-03 08:22N 55°48' E 007°05'1113.2
2014-Oct-03 07:33N 55°38' E 007°01'1413.4
2014-Oct-03 06:33N 55°24' E 007°01'1313.4
2014-Oct-03 05:33N 55°11' E 007°01'1313.4
2014-Oct-03 04:33N 54°57' E 007°02'1313.1
2014-Oct-03 03:33N 54°44' E 006°60'1212.4
2014-Oct-03 02:33N 54°33' E 007°10'1212.5
2014-Oct-03 01:33N 54°23' E 007°22'1212.4
2014-Oct-03 00:33N 54°11' E 007°30'1313.0
2014-Oct-02 23:33N 53°60' E 007°40'1414.1
2014-Oct-02 22:34N 53°51' E 007°59'  

Dump ship's entire track history